Huvudsida
METAR-TAF:

METAR-TAF

Flygplatser :

Starptautiskā lidosta "Liepāja"

Liepāja, Lettland

latitud: 56-31N, longitud: 021-05E, höjd: 5 m

Aktuellt väderrapport

Denna rapport gjordes för 35 minuter sedan, klockan 14:20 UTC
Vind 11 kt från ost/sydost
Temperatur 21°C
Fuktighet 18%
Tryck 1025 hPa
Sikt 10 km eller mer

METAR: EVLA 231420Z AUTO 12011KT 9999 NCD 21/M04 Q1025

Tid: 17:55 (14:55 UTC)

Väderprognos

Denna rapport gjordes för 55 minuter sedan, klockan 14:00 UTC
Prognos gäller från 23 kl. 15 UTC till 24 kl. 15 UTC
Vind 7 kt från sydost
Sikt 10 km eller mer
Inga moln under 1 500 m eller inga cumulonimbus
Blir
från 24 kl. 06 UTC till 24 kl. 07 UTC
Vind 15 kt från sydost
Temporärt
från 24 kl. 07 UTC till 24 kl. 15 UTC
Vind 20 kt från syd/sydost i byarna ända upp till 30 kt

TAF: EVLA 231400Z 2315/2415 13007KT CAVOK BECMG 2406/2407 14015KT TEMPO 2407/2415 15020G30KT

Aktuella väderrapporter och prognoser från 4000 flygplatser (METAR- och TAF-rapporter).

De tillgängliga stationerna syns som gula och röda prickar på kartan.

För musen över prickarna för att se namnen på stationerna.

Klicka sedan för att få väderrapporter och prognoser.

För att ändra kartan: Klicka på de gröna knapparna med ett svart kors på för att zooma in; den gröna knappen med ett streck på för att zooma ut; eller på de gröna pilarna för angränsande kartor.


METAR-TAF: